Pomeroy, Pennsylvania
Current Conditions -  °F | °C
As of 1:15 PM on Wednesday 26 Nov 2014 (Local Time) from KMQS Reporting Station
Light Snow Light Snow  
Wind Chill: 26°   Ceiling: 200
Heat Index: 32°   Visibility: 0.75mi
Dew Point: 32°   Wind: 6mph
Humidity: 100%   Direction: 30°NNE
Pressure: 29.93"   Gusts: NA
Location:  39.96°N, 75.89°W
Report Text: KMQS 261815Z AUTO 03005KT 3/4SM -SN OVC002 00/00 A2993 RMK AO2 P0002
Loading
Personal Weather Stations






























Interactive Weather Map New forecast layout! Learn more

10-Day Weather Forecast

Advertisements
Track Severe Weather on mobile